sensor_id;sensor_type;location;lat;lon;timestamp;P1;durP1;ratioP1;P2;durP2;ratioP2
82635;SDS011;72317;37.280;-121.948;2024-02-21T00:02:59;3.38;;;0.63;;
82635;SDS011;72317;37.280;-121.948;2024-02-21T00:08:00;4.47;;;0.70;;
82635;SDS011;72317;37.280;-121.948;2024-02-21T00:13:01;1.35;;;0.63;;
82635;SDS011;72317;37.280;-121.948;2024-02-21T00:18:02;1.38;;;0.60;;
82635;SDS011;72317;37.280;-121.948;2024-02-21T00:23:03;1.75;;;0.60;;
82635;SDS011;72317;37.280;-121.948;2024-02-21T00:28:04;2.35;;;0.45;;
82635;SDS011;72317;37.280;-121.948;2024-02-21T00:33:05;1.67;;;0.73;;
82635;SDS011;72317;37.280;-121.948;2024-02-21T00:38:06;1.50;;;0.70;;
82635;SDS011;72317;37.280;-121.948;2024-02-21T00:43:06;1.50;;;0.50;;
82635;SDS011;72317;37.280;-121.948;2024-02-21T00:48:07;1.23;;;0.47;;
82635;SDS011;72317;37.280;-121.948;2024-02-21T00:53:08;3.60;;;0.68;;
82635;SDS011;72317;37.280;-121.948;2024-02-21T00:58:09;1.70;;;0.70;;
82635;SDS011;72317;37.280;-121.948;2024-02-21T01:03:09;5.07;;;0.65;;
82635;SDS011;72317;37.280;-121.948;2024-02-21T01:08:10;3.08;;;0.82;;
82635;SDS011;72317;37.280;-121.948;2024-02-21T01:13:11;1.63;;;0.70;;
82635;SDS011;72317;37.280;-121.948;2024-02-21T01:18:12;2.38;;;0.60;;
82635;SDS011;72317;37.280;-121.948;2024-02-21T01:23:13;2.55;;;0.40;;
82635;SDS011;72317;37.280;-121.948;2024-02-21T01:28:13;2.05;;;0.60;;
82635;SDS011;72317;37.280;-121.948;2024-02-21T01:33:14;1.40;;;0.52;;
82635;SDS011;72317;37.280;-121.948;2024-02-21T01:38:15;1.80;;;0.60;;
82635;SDS011;72317;37.280;-121.948;2024-02-21T01:43:16;3.35;;;0.63;;
82635;SDS011;72317;37.280;-121.948;2024-02-21T01:48:19;5.07;;;1.50;;
82635;SDS011;72317;37.280;-121.948;2024-02-21T01:53:29;2.50;;;1.23;;
82635;SDS011;72317;37.280;-121.948;2024-02-21T01:58:34;1.98;;;0.95;;
82635;SDS011;72317;37.280;-121.948;2024-02-21T02:03:37;2.80;;;0.70;;
82635;SDS011;72317;37.280;-121.948;2024-02-21T02:08:38;2.38;;;0.70;;
82635;SDS011;72317;37.280;-121.948;2024-02-21T02:13:39;2.45;;;0.90;;
82635;SDS011;72317;37.280;-121.948;2024-02-21T02:18:40;2.45;;;0.90;;
82635;SDS011;72317;37.280;-121.948;2024-02-21T02:23:40;5.07;;;0.98;;
82635;SDS011;72317;37.280;-121.948;2024-02-21T02:28:42;3.38;;;0.93;;
82635;SDS011;72317;37.280;-121.948;2024-02-21T02:33:43;4.55;;;0.90;;
82635;SDS011;72317;37.280;-121.948;2024-02-21T02:38:44;2.47;;;0.85;;
82635;SDS011;72317;37.280;-121.948;2024-02-21T02:43:44;1.63;;;0.80;;
82635;SDS011;72317;37.280;-121.948;2024-02-21T02:48:45;3.25;;;0.80;;
82635;SDS011;72317;37.280;-121.948;2024-02-21T02:53:46;1.55;;;0.82;;
82635;SDS011;72317;37.280;-121.948;2024-02-21T02:58:47;5.63;;;0.90;;
82635;SDS011;72317;37.280;-121.948;2024-02-21T03:03:47;2.97;;;1.10;;
82635;SDS011;72317;37.280;-121.948;2024-02-21T03:08:48;3.63;;;1.10;;
82635;SDS011;72317;37.280;-121.948;2024-02-21T03:13:49;2.25;;;1.10;;
82635;SDS011;72317;37.280;-121.948;2024-02-21T03:18:50;3.95;;;1.13;;
82635;SDS011;72317;37.280;-121.948;2024-02-21T03:23:50;3.08;;;0.90;;
82635;SDS011;72317;37.280;-121.948;2024-02-21T03:28:51;6.43;;;1.00;;
82635;SDS011;72317;37.280;-121.948;2024-02-21T03:33:52;4.78;;;1.13;;
82635;SDS011;72317;37.280;-121.948;2024-02-21T03:38:54;4.00;;;1.27;;
82635;SDS011;72317;37.280;-121.948;2024-02-21T03:43:55;5.47;;;1.35;;
82635;SDS011;72317;37.280;-121.948;2024-02-21T03:48:56;2.15;;;1.25;;
82635;SDS011;72317;37.280;-121.948;2024-02-21T03:53:56;3.08;;;1.15;;
82635;SDS011;72317;37.280;-121.948;2024-02-21T03:58:57;1.77;;;1.20;;
82635;SDS011;72317;37.280;-121.948;2024-02-21T04:03:58;7.03;;;1.42;;
82635;SDS011;72317;37.280;-121.948;2024-02-21T04:08:59;4.45;;;1.13;;
82635;SDS011;72317;37.280;-121.948;2024-02-21T04:14:00;4.80;;;1.35;;
82635;SDS011;72317;37.280;-121.948;2024-02-21T04:19:00;6.95;;;1.15;;
82635;SDS011;72317;37.280;-121.948;2024-02-21T04:24:01;4.15;;;1.10;;
82635;SDS011;72317;37.280;-121.948;2024-02-21T04:29:02;3.35;;;1.00;;
82635;SDS011;72317;37.280;-121.948;2024-02-21T04:34:03;3.70;;;1.20;;
82635;SDS011;72317;37.280;-121.948;2024-02-21T04:39:04;4.65;;;0.93;;
82635;SDS011;72317;37.280;-121.948;2024-02-21T04:44:04;5.68;;;1.25;;
82635;SDS011;72317;37.280;-121.948;2024-02-21T04:49:05;4.47;;;1.27;;
82635;SDS011;72317;37.280;-121.948;2024-02-21T04:54:06;3.13;;;0.88;;
82635;SDS011;72317;37.280;-121.948;2024-02-21T04:59:07;1.58;;;0.68;;
82635;SDS011;72317;37.280;-121.948;2024-02-21T05:04:08;2.88;;;1.20;;
82635;SDS011;72317;37.280;-121.948;2024-02-21T05:09:09;1.95;;;0.98;;
82635;SDS011;72317;37.280;-121.948;2024-02-21T05:14:10;3.47;;;1.15;;
82635;SDS011;72317;37.280;-121.948;2024-02-21T05:19:10;2.70;;;1.10;;
82635;SDS011;72317;37.280;-121.948;2024-02-21T05:24:11;1.63;;;1.10;;
82635;SDS011;72317;37.280;-121.948;2024-02-21T05:29:12;3.25;;;1.00;;
82635;SDS011;72317;37.280;-121.948;2024-02-21T05:34:13;4.25;;;1.00;;
82635;SDS011;72317;37.280;-121.948;2024-02-21T05:39:14;3.60;;;1.10;;
82635;SDS011;72317;37.280;-121.948;2024-02-21T05:44:15;2.38;;;0.98;;
82635;SDS011;72317;37.280;-121.948;2024-02-21T05:49:15;4.55;;;1.20;;
82635;SDS011;72317;37.280;-121.948;2024-02-21T05:54:16;4.05;;;1.00;;
82635;SDS011;72317;37.280;-121.948;2024-02-21T05:59:17;5.38;;;1.10;;
82635;SDS011;72317;37.280;-121.948;2024-02-21T06:04:18;2.42;;;1.00;;
82635;SDS011;72317;37.280;-121.948;2024-02-21T06:09:18;1.42;;;0.68;;
82635;SDS011;72317;37.280;-121.948;2024-02-21T06:14:19;3.53;;;1.35;;
82635;SDS011;72317;37.280;-121.948;2024-02-21T06:19:20;2.83;;;1.00;;
82635;SDS011;72317;37.280;-121.948;2024-02-21T06:24:21;2.90;;;1.05;;
82635;SDS011;72317;37.280;-121.948;2024-02-21T06:29:22;3.20;;;1.00;;
82635;SDS011;72317;37.280;-121.948;2024-02-21T06:34:22;3.70;;;1.17;;
82635;SDS011;72317;37.280;-121.948;2024-02-21T06:39:23;4.38;;;1.20;;
82635;SDS011;72317;37.280;-121.948;2024-02-21T06:44:24;2.63;;;1.27;;
82635;SDS011;72317;37.280;-121.948;2024-02-21T06:49:26;1.90;;;1.08;;
82635;SDS011;72317;37.280;-121.948;2024-02-21T06:54:26;5.93;;;1.30;;
82635;SDS011;72317;37.280;-121.948;2024-02-21T06:59:27;2.05;;;0.93;;
82635;SDS011;72317;37.280;-121.948;2024-02-21T07:04:28;4.78;;;1.10;;
82635;SDS011;72317;37.280;-121.948;2024-02-21T07:09:29;4.57;;;1.10;;
82635;SDS011;72317;37.280;-121.948;2024-02-21T07:14:30;4.40;;;1.05;;
82635;SDS011;72317;37.280;-121.948;2024-02-21T07:19:32;2.88;;;0.95;;
82635;SDS011;72317;37.280;-121.948;2024-02-21T07:24:33;3.00;;;1.42;;
82635;SDS011;72317;37.280;-121.948;2024-02-21T07:29:34;1.95;;;0.68;;
82635;SDS011;72317;37.280;-121.948;2024-02-21T07:34:34;6.07;;;1.20;;
82635;SDS011;72317;37.280;-121.948;2024-02-21T07:39:36;1.83;;;1.00;;
82635;SDS011;72317;37.280;-121.948;2024-02-21T07:44:36;4.18;;;1.02;;
82635;SDS011;72317;37.280;-121.948;2024-02-21T07:49:40;3.17;;;0.98;;
82635;SDS011;72317;37.280;-121.948;2024-02-21T07:54:44;3.25;;;0.90;;
82635;SDS011;72317;37.280;-121.948;2024-02-21T07:59:44;2.40;;;1.10;;
82635;SDS011;72317;37.280;-121.948;2024-02-21T08:04:45;4.20;;;1.20;;
82635;SDS011;72317;37.280;-121.948;2024-02-21T08:09:46;2.88;;;1.17;;
82635;SDS011;72317;37.280;-121.948;2024-02-21T08:14:47;1.65;;;1.05;;
82635;SDS011;72317;37.280;-121.948;2024-02-21T08:19:48;3.33;;;1.10;;
82635;SDS011;72317;37.280;-121.948;2024-02-21T08:24:48;4.30;;;1.00;;
82635;SDS011;72317;37.280;-121.948;2024-02-21T08:29:49;2.05;;;0.95;;
82635;SDS011;72317;37.280;-121.948;2024-02-21T08:34:50;3.47;;;1.05;;
82635;SDS011;72317;37.280;-121.948;2024-02-21T08:39:51;1.95;;;1.08;;
82635;SDS011;72317;37.280;-121.948;2024-02-21T08:44:52;6.80;;;1.20;;
82635;SDS011;72317;37.280;-121.948;2024-02-21T08:49:52;2.20;;;1.00;;
82635;SDS011;72317;37.280;-121.948;2024-02-21T08:54:53;3.47;;;1.00;;
82635;SDS011;72317;37.280;-121.948;2024-02-21T08:59:54;2.38;;;1.13;;
82635;SDS011;72317;37.280;-121.948;2024-02-21T09:04:55;2.97;;;1.10;;
82635;SDS011;72317;37.280;-121.948;2024-02-21T09:09:56;1.45;;;0.95;;
82635;SDS011;72317;37.280;-121.948;2024-02-21T09:14:56;1.30;;;0.88;;
82635;SDS011;72317;37.280;-121.948;2024-02-21T09:19:57;4.28;;;1.20;;
82635;SDS011;72317;37.280;-121.948;2024-02-21T09:24:58;2.22;;;1.17;;
82635;SDS011;72317;37.280;-121.948;2024-02-21T09:29:59;2.80;;;1.00;;
82635;SDS011;72317;37.280;-121.948;2024-02-21T09:34:59;5.13;;;1.30;;
82635;SDS011;72317;37.280;-121.948;2024-02-21T09:40:00;3.42;;;1.40;;
82635;SDS011;72317;37.280;-121.948;2024-02-21T09:45:02;2.13;;;1.00;;
82635;SDS011;72317;37.280;-121.948;2024-02-21T09:50:07;2.78;;;1.10;;
82635;SDS011;72317;37.280;-121.948;2024-02-21T09:55:08;1.75;;;0.98;;
82635;SDS011;72317;37.280;-121.948;2024-02-21T10:00:09;1.42;;;1.00;;
82635;SDS011;72317;37.280;-121.948;2024-02-21T10:05:10;2.47;;;1.17;;
82635;SDS011;72317;37.280;-121.948;2024-02-21T10:10:11;5.80;;;0.98;;
82635;SDS011;72317;37.280;-121.948;2024-02-21T10:15:12;2.95;;;1.08;;
82635;SDS011;72317;37.280;-121.948;2024-02-21T10:20:13;2.22;;;1.00;;
82635;SDS011;72317;37.280;-121.948;2024-02-21T10:25:14;3.28;;;1.23;;
82635;SDS011;72317;37.280;-121.948;2024-02-21T10:30:15;2.50;;;1.20;;
82635;SDS011;72317;37.280;-121.948;2024-02-21T10:35:24;3.13;;;1.20;;
82635;SDS011;72317;37.280;-121.948;2024-02-21T10:40:27;5.53;;;1.42;;
82635;SDS011;72317;37.280;-121.948;2024-02-21T10:45:32;2.47;;;1.08;;
82635;SDS011;72317;37.280;-121.948;2024-02-21T10:50:36;1.38;;;1.00;;
82635;SDS011;72317;37.280;-121.948;2024-02-21T10:56:02;3.92;;;1.10;;
82635;SDS011;72317;37.280;-121.948;2024-02-21T11:01:28;1.95;;;0.93;;
82635;SDS011;72317;37.280;-121.948;2024-02-21T11:06:29;3.72;;;1.50;;
82635;SDS011;72317;37.280;-121.948;2024-02-21T11:11:34;1.80;;;1.08;;
82635;SDS011;72317;37.280;-121.948;2024-02-21T11:16:39;5.90;;;1.00;;
82635;SDS011;72317;37.280;-121.948;2024-02-21T11:21:41;2.47;;;1.10;;
82635;SDS011;72317;37.280;-121.948;2024-02-21T11:26:42;2.00;;;0.80;;
82635;SDS011;72317;37.280;-121.948;2024-02-21T11:31:44;2.92;;;0.60;;
82635;SDS011;72317;37.280;-121.948;2024-02-21T11:36:51;1.20;;;0.80;;
82635;SDS011;72317;37.280;-121.948;2024-02-21T11:42:05;1.67;;;0.68;;
82635;SDS011;72317;37.280;-121.948;2024-02-21T11:47:07;1.15;;;0.80;;
82635;SDS011;72317;37.280;-121.948;2024-02-21T11:52:09;0.98;;;0.70;;
82635;SDS011;72317;37.280;-121.948;2024-02-21T11:57:10;1.50;;;0.65;;
82635;SDS011;72317;37.280;-121.948;2024-02-21T12:02:11;2.30;;;0.50;;
82635;SDS011;72317;37.280;-121.948;2024-02-21T12:07:12;6.50;;;1.02;;
82635;SDS011;72317;37.280;-121.948;2024-02-21T12:12:14;2.90;;;0.70;;
82635;SDS011;72317;37.280;-121.948;2024-02-21T12:17:20;2.65;;;0.60;;
82635;SDS011;72317;37.280;-121.948;2024-02-21T12:22:21;0.82;;;0.43;;
82635;SDS011;72317;37.280;-121.948;2024-02-21T12:27:22;2.85;;;0.75;;
82635;SDS011;72317;37.280;-121.948;2024-02-21T12:32:22;1.83;;;0.70;;
82635;SDS011;72317;37.280;-121.948;2024-02-21T12:37:25;2.47;;;0.70;;
82635;SDS011;72317;37.280;-121.948;2024-02-21T12:42:26;2.42;;;0.60;;
82635;SDS011;72317;37.280;-121.948;2024-02-21T12:47:27;1.70;;;0.50;;
82635;SDS011;72317;37.280;-121.948;2024-02-21T12:52:28;1.88;;;0.70;;
82635;SDS011;72317;37.280;-121.948;2024-02-21T12:57:29;2.35;;;0.60;;
82635;SDS011;72317;37.280;-121.948;2024-02-21T13:02:30;2.25;;;0.65;;
82635;SDS011;72317;37.280;-121.948;2024-02-21T13:07:30;0.80;;;0.80;;
82635;SDS011;72317;37.280;-121.948;2024-02-21T13:12:31;1.95;;;0.68;;
82635;SDS011;72317;37.280;-121.948;2024-02-21T13:17:32;0.98;;;0.60;;
82635;SDS011;72317;37.280;-121.948;2024-02-21T13:22:33;4.85;;;0.50;;
82635;SDS011;72317;37.280;-121.948;2024-02-21T13:27:34;0.55;;;0.45;;
82635;SDS011;72317;37.280;-121.948;2024-02-21T13:32:35;1.38;;;0.60;;
82635;SDS011;72317;37.280;-121.948;2024-02-21T13:37:36;3.13;;;0.70;;
82635;SDS011;72317;37.280;-121.948;2024-02-21T13:42:37;1.98;;;0.55;;
82635;SDS011;72317;37.280;-121.948;2024-02-21T13:47:37;1.48;;;0.75;;
82635;SDS011;72317;37.280;-121.948;2024-02-21T13:52:38;2.50;;;0.65;;
82635;SDS011;72317;37.280;-121.948;2024-02-21T13:57:39;1.85;;;0.60;;
82635;SDS011;72317;37.280;-121.948;2024-02-21T14:02:40;0.73;;;0.55;;
82635;SDS011;72317;37.280;-121.948;2024-02-21T14:07:41;1.63;;;0.70;;
82635;SDS011;72317;37.280;-121.948;2024-02-21T14:12:41;1.20;;;0.90;;
82635;SDS011;72317;37.280;-121.948;2024-02-21T14:17:42;1.85;;;0.95;;
82635;SDS011;72317;37.280;-121.948;2024-02-21T14:22:43;0.85;;;0.70;;
82635;SDS011;72317;37.280;-121.948;2024-02-21T14:27:44;0.77;;;0.65;;
82635;SDS011;72317;37.280;-121.948;2024-02-21T14:32:45;3.15;;;0.50;;
82635;SDS011;72317;37.280;-121.948;2024-02-21T14:37:45;1.88;;;0.73;;
82635;SDS011;72317;37.280;-121.948;2024-02-21T14:42:46;0.93;;;0.70;;
82635;SDS011;72317;37.280;-121.948;2024-02-21T14:47:47;5.45;;;0.88;;
82635;SDS011;72317;37.280;-121.948;2024-02-21T14:52:48;1.55;;;0.80;;
82635;SDS011;72317;37.280;-121.948;2024-02-21T14:57:49;0.85;;;0.63;;
82635;SDS011;72317;37.280;-121.948;2024-02-21T15:02:50;2.95;;;0.82;;
82635;SDS011;72317;37.280;-121.948;2024-02-21T15:07:51;1.77;;;0.70;;
82635;SDS011;72317;37.280;-121.948;2024-02-21T15:12:52;2.58;;;0.88;;
82635;SDS011;72317;37.280;-121.948;2024-02-21T15:17:52;1.33;;;1.00;;
82635;SDS011;72317;37.280;-121.948;2024-02-21T15:22:53;3.58;;;1.10;;
82635;SDS011;72317;37.280;-121.948;2024-02-21T15:27:54;4.45;;;0.70;;
82635;SDS011;72317;37.280;-121.948;2024-02-21T15:32:55;5.97;;;1.10;;
82635;SDS011;72317;37.280;-121.948;2024-02-21T15:37:57;2.83;;;1.35;;
82635;SDS011;72317;37.280;-121.948;2024-02-21T15:42:58;2.47;;;1.08;;
82635;SDS011;72317;37.280;-121.948;2024-02-21T15:47:58;1.15;;;0.80;;
82635;SDS011;72317;37.280;-121.948;2024-02-21T15:52:59;2.72;;;0.90;;
82635;SDS011;72317;37.280;-121.948;2024-02-21T15:58:00;1.70;;;0.65;;
82635;SDS011;72317;37.280;-121.948;2024-02-21T16:03:01;1.17;;;0.47;;
82635;SDS011;72317;37.280;-121.948;2024-02-21T16:08:01;2.50;;;0.47;;
82635;SDS011;72317;37.280;-121.948;2024-02-21T16:13:02;1.75;;;0.50;;
82635;SDS011;72317;37.280;-121.948;2024-02-21T16:18:03;1.38;;;0.40;;
82635;SDS011;72317;37.280;-121.948;2024-02-21T16:23:04;2.13;;;0.70;;
82635;SDS011;72317;37.280;-121.948;2024-02-21T16:28:05;2.05;;;0.68;;
82635;SDS011;72317;37.280;-121.948;2024-02-21T16:33:06;2.08;;;0.93;;
82635;SDS011;72317;37.280;-121.948;2024-02-21T16:38:07;3.63;;;0.90;;
82635;SDS011;72317;37.280;-121.948;2024-02-21T16:43:08;3.13;;;1.23;;
82635;SDS011;72317;37.280;-121.948;2024-02-21T16:48:08;1.55;;;0.80;;
82635;SDS011;72317;37.280;-121.948;2024-02-21T16:53:09;1.67;;;0.73;;
82635;SDS011;72317;37.280;-121.948;2024-02-21T16:58:10;3.58;;;0.85;;
82635;SDS011;72317;37.280;-121.948;2024-02-21T17:03:11;1.00;;;0.88;;
82635;SDS011;72317;37.280;-121.948;2024-02-21T17:08:12;1.52;;;0.70;;
82635;SDS011;72317;37.280;-121.948;2024-02-21T17:13:12;3.22;;;0.85;;
82635;SDS011;72317;37.280;-121.948;2024-02-21T17:18:13;3.88;;;0.80;;
82635;SDS011;72317;37.280;-121.948;2024-02-21T17:23:14;1.13;;;0.57;;
82635;SDS011;72317;37.280;-121.948;2024-02-21T17:28:15;0.90;;;0.80;;
82635;SDS011;72317;37.280;-121.948;2024-02-21T17:33:15;3.15;;;1.08;;
82635;SDS011;72317;37.280;-121.948;2024-02-21T17:38:16;3.28;;;1.20;;
82635;SDS011;72317;37.280;-121.948;2024-02-21T17:43:17;1.70;;;0.98;;
82635;SDS011;72317;37.280;-121.948;2024-02-21T17:48:18;3.10;;;1.10;;
82635;SDS011;72317;37.280;-121.948;2024-02-21T17:53:19;1.15;;;0.65;;
82635;SDS011;72317;37.280;-121.948;2024-02-21T17:58:20;3.60;;;1.20;;
82635;SDS011;72317;37.280;-121.948;2024-02-21T18:03:20;1.48;;;0.80;;
82635;SDS011;72317;37.280;-121.948;2024-02-21T18:08:21;1.83;;;0.60;;
82635;SDS011;72317;37.280;-121.948;2024-02-21T18:13:22;2.05;;;0.40;;
82635;SDS011;72317;37.280;-121.948;2024-02-21T18:18:23;2.38;;;0.52;;
82635;SDS011;72317;37.280;-121.948;2024-02-21T18:23:23;0.85;;;0.40;;
82635;SDS011;72317;37.280;-121.948;2024-02-21T18:28:24;1.15;;;0.40;;
82635;SDS011;72317;37.280;-121.948;2024-02-21T18:33:25;1.63;;;0.40;;
82635;SDS011;72317;37.280;-121.948;2024-02-21T18:38:25;0.98;;;0.32;;
82635;SDS011;72317;37.280;-121.948;2024-02-21T18:43:26;0.68;;;0.40;;
82635;SDS011;72317;37.280;-121.948;2024-02-21T18:48:27;0.95;;;0.40;;
82635;SDS011;72317;37.280;-121.948;2024-02-21T18:53:28;2.42;;;0.77;;
82635;SDS011;72317;37.280;-121.948;2024-02-21T18:58:28;2.83;;;0.70;;
82635;SDS011;72317;37.280;-121.948;2024-02-21T19:03:29;1.83;;;0.55;;
82635;SDS011;72317;37.280;-121.948;2024-02-21T19:08:30;2.38;;;0.75;;
82635;SDS011;72317;37.280;-121.948;2024-02-21T19:13:31;1.85;;;0.70;;
82635;SDS011;72317;37.280;-121.948;2024-02-21T19:18:31;3.13;;;1.10;;
82635;SDS011;72317;37.280;-121.948;2024-02-21T19:23:32;1.15;;;0.80;;
82635;SDS011;72317;37.280;-121.948;2024-02-21T19:28:33;2.03;;;1.05;;
82635;SDS011;72317;37.280;-121.948;2024-02-21T19:33:34;2.28;;;0.90;;
82635;SDS011;72317;37.280;-121.948;2024-02-21T19:38:35;1.88;;;1.02;;
82635;SDS011;72317;37.280;-121.948;2024-02-21T19:43:36;1.48;;;0.82;;
82635;SDS011;72317;37.280;-121.948;2024-02-21T19:48:36;2.47;;;1.00;;
82635;SDS011;72317;37.280;-121.948;2024-02-21T19:53:37;1.85;;;0.90;;
82635;SDS011;72317;37.280;-121.948;2024-02-21T19:58:38;0.80;;;0.80;;
82635;SDS011;72317;37.280;-121.948;2024-02-21T20:03:39;0.90;;;0.90;;
82635;SDS011;72317;37.280;-121.948;2024-02-21T20:08:39;2.70;;;1.00;;
82635;SDS011;72317;37.280;-121.948;2024-02-21T20:13:40;1.90;;;0.93;;
82635;SDS011;72317;37.280;-121.948;2024-02-21T20:18:41;2.80;;;0.70;;
82635;SDS011;72317;37.280;-121.948;2024-02-21T20:23:42;0.95;;;0.70;;
82635;SDS011;72317;37.280;-121.948;2024-02-21T20:28:43;1.58;;;0.65;;
82635;SDS011;72317;37.280;-121.948;2024-02-21T20:33:43;2.40;;;0.45;;
82635;SDS011;72317;37.280;-121.948;2024-02-21T20:38:44;0.90;;;0.50;;
82635;SDS011;72317;37.280;-121.948;2024-02-21T20:43:45;3.95;;;0.50;;
82635;SDS011;72317;37.280;-121.948;2024-02-21T20:48:46;0.75;;;0.40;;
82635;SDS011;72317;37.280;-121.948;2024-02-21T20:53:47;3.65;;;0.52;;
82635;SDS011;72317;37.280;-121.948;2024-02-21T20:58:48;2.35;;;0.40;;
82635;SDS011;72317;37.280;-121.948;2024-02-21T21:03:48;1.52;;;0.45;;
82635;SDS011;72317;37.280;-121.948;2024-02-21T21:08:49;0.65;;;0.30;;
82635;SDS011;72317;37.280;-121.948;2024-02-21T21:13:50;2.58;;;0.50;;
82635;SDS011;72317;37.280;-121.948;2024-02-21T21:18:51;2.38;;;0.55;;
82635;SDS011;72317;37.280;-121.948;2024-02-21T21:23:51;2.50;;;0.50;;
82635;SDS011;72317;37.280;-121.948;2024-02-21T21:28:52;1.10;;;0.40;;
82635;SDS011;72317;37.280;-121.948;2024-02-21T21:33:53;1.88;;;0.47;;
82635;SDS011;72317;37.280;-121.948;2024-02-21T21:38:54;0.90;;;0.40;;
82635;SDS011;72317;37.280;-121.948;2024-02-21T21:43:54;0.63;;;0.40;;
82635;SDS011;72317;37.280;-121.948;2024-02-21T21:48:55;2.22;;;0.50;;
82635;SDS011;72317;37.280;-121.948;2024-02-21T21:53:56;1.85;;;0.60;;
82635;SDS011;72317;37.280;-121.948;2024-02-21T21:58:57;1.23;;;0.38;;
82635;SDS011;72317;37.280;-121.948;2024-02-21T22:03:59;1.50;;;0.47;;
82635;SDS011;72317;37.280;-121.948;2024-02-21T22:09:00;2.33;;;0.60;;
82635;SDS011;72317;37.280;-121.948;2024-02-21T22:14:01;1.60;;;0.40;;
82635;SDS011;72317;37.280;-121.948;2024-02-21T22:19:01;1.80;;;0.43;;
82635;SDS011;72317;37.280;-121.948;2024-02-21T22:24:02;2.35;;;0.40;;
82635;SDS011;72317;37.280;-121.948;2024-02-21T22:29:04;0.77;;;0.38;;
82635;SDS011;72317;37.280;-121.948;2024-02-21T22:34:05;1.65;;;0.45;;
82635;SDS011;72317;37.280;-121.948;2024-02-21T22:39:06;1.05;;;0.47;;
82635;SDS011;72317;37.280;-121.948;2024-02-21T22:44:07;1.77;;;0.45;;
82635;SDS011;72317;37.280;-121.948;2024-02-21T22:49:07;3.83;;;0.52;;
82635;SDS011;72317;37.280;-121.948;2024-02-21T22:54:28;1.38;;;0.35;;
82635;SDS011;72317;37.280;-121.948;2024-02-21T22:59:29;1.42;;;0.40;;
82635;SDS011;72317;37.280;-121.948;2024-02-21T23:04:30;2.60;;;0.50;;
82635;SDS011;72317;37.280;-121.948;2024-02-21T23:09:31;2.70;;;0.57;;
82635;SDS011;72317;37.280;-121.948;2024-02-21T23:14:32;3.20;;;0.50;;
82635;SDS011;72317;37.280;-121.948;2024-02-21T23:19:33;1.83;;;0.40;;
82635;SDS011;72317;37.280;-121.948;2024-02-21T23:24:34;0.73;;;0.43;;
82635;SDS011;72317;37.280;-121.948;2024-02-21T23:29:35;1.05;;;0.35;;
82635;SDS011;72317;37.280;-121.948;2024-02-21T23:34:36;5.50;;;0.47;;
82635;SDS011;72317;37.280;-121.948;2024-02-21T23:39:36;3.10;;;0.50;;
82635;SDS011;72317;37.280;-121.948;2024-02-21T23:44:37;1.48;;;0.55;;
82635;SDS011;72317;37.280;-121.948;2024-02-21T23:49:38;3.83;;;0.40;;
82635;SDS011;72317;37.280;-121.948;2024-02-21T23:54:40;4.15;;;0.60;;
82635;SDS011;72317;37.280;-121.948;2024-02-21T23:59:41;1.60;;;0.30;;
